createdAt,value
2023-02-06T00:00:10.942Z,6.80
2023-02-06T00:06:29.444Z,6.90
2023-02-06T00:12:47.792Z,6.80
2023-02-06T00:18:42.178Z,6.80
2023-02-06T00:24:38.531Z,6.80
2023-02-06T00:30:57.063Z,6.80
2023-02-06T00:37:17.441Z,6.80
2023-02-06T00:43:11.821Z,6.70
2023-02-06T00:49:06.286Z,6.50
2023-02-06T00:55:24.797Z,6.50
2023-02-06T01:01:43.223Z,6.50
2023-02-06T01:07:39.395Z,6.40
2023-02-06T01:13:33.869Z,6.30
2023-02-06T01:19:53.340Z,6.20
2023-02-06T01:26:13.006Z,6.30
2023-02-06T01:32:07.381Z,6.30
2023-02-06T01:38:02.859Z,6.20
2023-02-06T01:44:23.110Z,6.20
2023-02-06T01:50:42.166Z,6.10
2023-02-06T01:56:41.616Z,6.00
2023-02-06T02:02:36.296Z,5.70
2023-02-06T02:08:58.316Z,5.80
2023-02-06T02:15:16.946Z,5.60
2023-02-06T02:21:14.096Z,5.60
2023-02-06T02:27:19.491Z,5.50
2023-02-06T02:34:18.307Z,5.40
2023-02-06T02:40:42.952Z,5.30
2023-02-06T02:46:41.022Z,5.30
2023-02-06T02:52:35.469Z,5.30
2023-02-06T02:59:02.318Z,5.30
2023-02-06T03:05:21.994Z,5.30
2023-02-06T03:11:16.770Z,5.40
2023-02-06T03:17:12.159Z,5.50
2023-02-06T03:23:32.194Z,5.50
2023-02-06T03:29:50.664Z,5.50
2023-02-06T03:35:45.065Z,5.50
2023-02-06T03:41:40.370Z,5.50
2023-02-06T03:48:12.354Z,5.50
2023-02-06T03:54:30.794Z,5.40
2023-02-06T04:00:26.376Z,5.40
2023-02-06T04:06:20.925Z,5.40
2023-02-06T04:12:39.411Z,5.50
2023-02-06T04:18:57.921Z,5.50
2023-02-06T04:24:52.277Z,5.50
2023-02-06T04:30:48.677Z,5.60
2023-02-06T04:37:07.260Z,5.60
2023-02-06T04:43:25.610Z,5.60
2023-02-06T04:49:19.997Z,5.60
2023-02-06T04:55:14.518Z,5.50
2023-02-06T05:01:33.055Z,5.50
2023-02-06T05:07:51.519Z,5.50
2023-02-06T05:13:45.882Z,5.40
2023-02-06T05:19:40.424Z,5.20
2023-02-06T05:25:59.925Z,5.10
2023-02-06T05:32:19.823Z,5.00
2023-02-06T05:38:14.169Z,4.90
2023-02-06T05:44:11.041Z,4.80
2023-02-06T05:50:29.507Z,4.70
2023-02-06T05:56:47.905Z,4.70
2023-02-06T06:02:43.192Z,4.60
2023-02-06T06:08:37.750Z,4.50
2023-02-06T06:14:56.281Z,4.50
2023-02-06T06:21:14.737Z,4.50
2023-02-06T06:27:10.806Z,4.60
2023-02-06T06:33:05.554Z,4.70
2023-02-06T06:39:26.077Z,4.70
2023-02-06T06:45:44.520Z,4.80
2023-02-06T06:51:38.922Z,4.90
2023-02-06T06:57:33.385Z,4.90
2023-02-06T07:03:51.978Z,4.80
2023-02-06T07:10:10.572Z,4.70
2023-02-06T07:16:05.208Z,4.60
2023-02-06T07:21:59.799Z,4.50
2023-02-06T07:28:18.378Z,4.40
2023-02-06T07:34:36.845Z,4.40
2023-02-06T07:40:43.937Z,4.30
2023-02-06T07:46:39.350Z,4.30
2023-02-06T07:52:57.845Z,4.40
2023-02-06T07:59:16.240Z,4.50
2023-02-06T08:05:10.645Z,4.60
2023-02-06T08:11:09.322Z,5.10
2023-02-06T08:17:28.199Z,5.40
2023-02-06T08:23:46.684Z,5.50
2023-02-06T08:29:42.810Z,5.70
2023-02-06T08:35:38.350Z,6.00
2023-02-06T08:41:56.975Z,6.30
2023-02-06T08:48:15.654Z,6.70
2023-02-06T08:54:19.688Z,7.00
2023-02-06T09:00:14.884Z,7.50
2023-02-06T09:06:35.150Z,8.00
2023-02-06T09:12:54.414Z,8.40
2023-02-06T09:18:49.086Z,8.20
2023-02-06T09:24:43.889Z,8.30
2023-02-06T09:31:02.554Z,8.40
2023-02-06T09:37:21.529Z,8.40
2023-02-06T09:43:15.898Z,8.50
2023-02-06T09:49:22.702Z,8.80
2023-02-06T09:55:47.312Z,8.80
2023-02-06T10:02:24.659Z,9.00
2023-02-06T10:08:37.808Z,9.30
2023-02-06T10:14:49.122Z,9.10
2023-02-06T10:21:35.450Z,9.00
2023-02-06T10:27:58.503Z,9.30
2023-02-06T10:34:00.216Z,9.30
2023-02-06T10:40:13.848Z,9.30
2023-02-06T10:46:46.468Z,9.80
2023-02-06T10:53:26.046Z,9.70
2023-02-06T10:59:28.229Z,9.70
2023-02-06T11:05:24.157Z,9.90
2023-02-06T11:11:48.135Z,10.20
2023-02-06T11:18:07.458Z,10.40
2023-02-06T11:24:09.005Z,10.40
2023-02-06T11:30:23.256Z,10.30
2023-02-06T11:36:41.777Z,10.20
2023-02-06T11:43:18.945Z,10.40
2023-02-06T11:49:14.260Z,10.60
2023-02-06T11:55:30.607Z,10.40
2023-02-06T12:01:49.318Z,10.50
2023-02-06T12:08:11.402Z,10.60
2023-02-06T12:14:13.478Z,10.30
2023-02-06T12:20:19.383Z,10.30
2023-02-06T12:26:38.662Z,10.30
2023-02-06T12:33:01.349Z,10.60
2023-02-06T12:38:57.745Z,10.60
2023-02-06T12:44:55.253Z,10.40
2023-02-06T12:51:13.826Z,10.20
2023-02-06T12:57:32.326Z,10.20
2023-02-06T13:03:30.729Z,9.60
2023-02-06T13:09:36.896Z,9.60
2023-02-06T13:15:55.779Z,9.70
2023-02-06T13:22:15.725Z,9.80
2023-02-06T13:28:23.520Z,9.80
2023-02-06T13:34:18.279Z,9.70
2023-02-06T13:40:36.991Z,9.40
2023-02-06T13:47:31.894Z,9.80
2023-02-06T13:53:36.353Z,9.30
2023-02-06T13:59:49.446Z,9.00
2023-02-06T14:06:16.079Z,9.20
2023-02-06T14:12:34.940Z,9.40
2023-02-06T14:18:32.507Z,9.10
2023-02-06T14:25:04.771Z,8.90
2023-02-06T14:31:46.679Z,8.80
2023-02-06T14:38:23.960Z,9.20
2023-02-06T14:44:19.411Z,9.10
2023-02-06T14:50:18.596Z,9.00
2023-02-06T14:56:37.757Z,8.80
2023-02-06T15:03:08.078Z,9.10
2023-02-06T15:09:02.888Z,9.30
2023-02-06T15:15:15.295Z,9.80
2023-02-06T15:21:34.675Z,10.00
2023-02-06T15:28:03.629Z,9.60
2023-02-06T15:33:58.902Z,9.90
2023-02-06T15:39:53.688Z,9.70
2023-02-06T15:48:13.376Z,9.50
2023-02-06T15:54:31.916Z,8.70
2023-02-06T16:00:30.037Z,8.60
2023-02-06T16:06:24.663Z,8.40
2023-02-06T16:12:44.107Z,8.20
2023-02-06T16:19:21.116Z,7.90
2023-02-06T16:25:22.654Z,7.80
2023-02-06T16:31:18.262Z,7.60
2023-02-06T16:37:36.816Z,7.40
2023-02-06T16:43:55.749Z,7.40
2023-02-06T16:49:51.130Z,7.30
2023-02-06T16:55:45.594Z,7.20
2023-02-06T17:02:12.680Z,7.10
2023-02-06T17:08:31.122Z,7.00
2023-02-06T17:14:25.533Z,7.00
2023-02-06T17:20:32.611Z,6.80
2023-02-06T17:26:51.103Z,6.80
2023-02-06T17:33:09.545Z,6.80
2023-02-06T17:39:03.937Z,6.70
2023-02-06T17:44:59.004Z,6.70
2023-02-06T17:51:17.510Z,6.60
2023-02-06T17:57:36.119Z,6.70
2023-02-06T18:03:30.520Z,6.60
2023-02-06T18:09:25.000Z,6.50
2023-02-06T18:15:52.510Z,6.40
2023-02-06T18:22:11.763Z,6.40
2023-02-06T18:28:06.285Z,6.30
2023-02-06T18:34:03.926Z,6.20
2023-02-06T18:40:22.500Z,6.10
2023-02-06T18:46:41.967Z,6.10
2023-02-06T18:52:37.356Z,6.00
2023-02-06T18:58:31.859Z,6.00
2023-02-06T19:04:50.391Z,6.00
2023-02-06T19:11:11.308Z,5.90
2023-02-06T19:17:05.727Z,5.80
2023-02-06T19:23:00.250Z,5.70
2023-02-06T19:29:33.582Z,5.70
2023-02-06T19:35:53.402Z,5.70
2023-02-06T19:41:47.748Z,5.60
2023-02-06T19:47:42.308Z,5.50
2023-02-06T19:54:01.959Z,5.40
2023-02-06T20:00:20.411Z,5.40
2023-02-06T20:06:14.912Z,5.20
2023-02-06T20:12:10.269Z,5.10
2023-02-06T20:18:31.048Z,5.00
2023-02-06T20:24:49.906Z,4.90
2023-02-06T20:30:44.423Z,4.80
2023-02-06T20:36:38.972Z,4.60
2023-02-06T20:42:57.546Z,4.60
2023-02-06T20:49:21.093Z,4.60
2023-02-06T20:55:15.596Z,4.60
2023-02-06T21:01:14.070Z,4.50
2023-02-06T21:07:33.482Z,4.40
2023-02-06T21:13:52.133Z,4.40
2023-02-06T21:19:47.520Z,4.40
2023-02-06T21:25:42.820Z,4.30
2023-02-06T21:32:13.361Z,4.10
2023-02-06T21:38:32.758Z,4.00
2023-02-06T21:44:27.155Z,3.80
2023-02-06T21:50:21.821Z,3.70
2023-02-06T21:56:40.297Z,3.60
2023-02-06T22:02:58.714Z,3.60
2023-02-06T22:08:53.506Z,3.50
2023-02-06T22:14:48.016Z,3.40
2023-02-06T22:21:07.226Z,3.30
2023-02-06T22:27:27.569Z,3.30
2023-02-06T22:33:21.943Z,3.30
2023-02-06T22:39:16.616Z,3.20
2023-02-06T22:45:35.804Z,3.30
2023-02-06T22:51:54.330Z,3.30
2023-02-06T22:57:48.717Z,3.30
2023-02-06T23:03:43.424Z,3.20
2023-02-06T23:10:04.050Z,3.20
2023-02-06T23:16:22.575Z,3.10
2023-02-06T23:22:17.039Z,3.00
2023-02-06T23:28:11.542Z,3.00
2023-02-06T23:34:30.154Z,2.90
2023-02-06T23:40:48.772Z,2.80
2023-02-06T23:46:43.249Z,2.80
2023-02-06T23:52:37.754Z,2.70
2023-02-06T23:58:56.820Z,2.70
